sensor_id;sensor_type;location;lat;lon;timestamp;temperature;humidity
20370;DHT22;10344;47.592;9.600;2022-08-11T00:02:23;19.00;95.60
20370;DHT22;10344;47.592;9.600;2022-08-11T00:04:50;19.00;95.40
20370;DHT22;10344;47.592;9.600;2022-08-11T00:07:16;19.00;95.60
20370;DHT22;10344;47.592;9.600;2022-08-11T00:09:41;19.00;95.60
20370;DHT22;10344;47.592;9.600;2022-08-11T00:12:14;19.00;95.70
20370;DHT22;10344;47.592;9.600;2022-08-11T00:14:40;19.00;95.80
20370;DHT22;10344;47.592;9.600;2022-08-11T00:17:08;19.00;95.50
20370;DHT22;10344;47.592;9.600;2022-08-11T00:19:34;19.00;95.70
20370;DHT22;10344;47.592;9.600;2022-08-11T00:22:01;18.90;95.90
20370;DHT22;10344;47.592;9.600;2022-08-11T00:24:35;18.80;96.80
20370;DHT22;10344;47.592;9.600;2022-08-11T00:27:01;18.70;96.60
20370;DHT22;10344;47.592;9.600;2022-08-11T00:29:27;18.70;97.10
20370;DHT22;10344;47.592;9.600;2022-08-11T00:31:54;18.60;97.70
20370;DHT22;10344;47.592;9.600;2022-08-11T00:34:23;18.60;98.20
20370;DHT22;10344;47.592;9.600;2022-08-11T00:36:56;18.60;97.70
20370;DHT22;10344;47.592;9.600;2022-08-11T00:39:24;18.60;97.20
20370;DHT22;10344;47.592;9.600;2022-08-11T00:44:31;18.40;97.70
20370;DHT22;10344;47.592;9.600;2022-08-11T00:52:19;18.30;98.30
20370;DHT22;10344;47.592;9.600;2022-08-11T00:57:24;18.30;97.70
20370;DHT22;10344;47.592;9.600;2022-08-11T01:02:25;18.40;97.80
20370;DHT22;10344;47.592;9.600;2022-08-11T01:09:58;18.30;97.90
20370;DHT22;10344;47.592;9.600;2022-08-11T01:44:16;18.20;99.30
20370;DHT22;10344;47.592;9.600;2022-08-11T01:49:58;18.00;99.70
20370;DHT22;10344;47.592;9.600;2022-08-11T01:52:34;17.90;99.90
20370;DHT22;10344;47.592;9.600;2022-08-11T01:57:37;17.70;99.90
20370;DHT22;10344;47.592;9.600;2022-08-11T02:00:08;17.70;99.90
20370;DHT22;10344;47.592;9.600;2022-08-11T02:05:34;17.50;99.90
20370;DHT22;10344;47.592;9.600;2022-08-11T02:10:44;17.30;99.90
20370;DHT22;10344;47.592;9.600;2022-08-11T02:13:35;17.20;99.90
20370;DHT22;10344;47.592;9.600;2022-08-11T02:16:20;17.20;99.90
20370;DHT22;10344;47.592;9.600;2022-08-11T02:18:52;17.10;99.90
20370;DHT22;10344;47.592;9.600;2022-08-11T02:30:17;16.90;99.90
20370;DHT22;10344;47.592;9.600;2022-08-11T02:32:50;16.90;99.90
20370;DHT22;10344;47.592;9.600;2022-08-11T02:35:44;16.80;99.90
20370;DHT22;10344;47.592;9.600;2022-08-11T02:40:56;16.70;99.90
20370;DHT22;10344;47.592;9.600;2022-08-11T02:43:32;16.70;99.90
20370;DHT22;10344;47.592;9.600;2022-08-11T02:46:05;16.70;99.90
20370;DHT22;10344;47.592;9.600;2022-08-11T02:59:03;16.40;99.90
20370;DHT22;10344;47.592;9.600;2022-08-11T03:02:01;16.40;99.90
20370;DHT22;10344;47.592;9.600;2022-08-11T03:07:20;16.30;99.90
20370;DHT22;10344;47.592;9.600;2022-08-11T03:09:54;16.20;99.90
20370;DHT22;10344;47.592;9.600;2022-08-11T03:12:31;16.20;99.90
20370;DHT22;10344;47.592;9.600;2022-08-11T03:15:20;16.20;99.90
20370;DHT22;10344;47.592;9.600;2022-08-11T03:23:08;16.00;99.90
20370;DHT22;10344;47.592;9.600;2022-08-11T03:28:23;15.90;99.90
20370;DHT22;10344;47.592;9.600;2022-08-11T03:31:14;15.90;99.90
20370;DHT22;10344;47.592;9.600;2022-08-11T03:33:46;16.00;99.90
20370;DHT22;10344;47.592;9.600;2022-08-11T03:39:19;16.00;99.90
20370;DHT22;10344;47.592;9.600;2022-08-11T03:42:09;16.00;99.90
20370;DHT22;10344;47.592;9.600;2022-08-11T03:44:47;15.90;99.90
20370;DHT22;10344;47.592;9.600;2022-08-11T03:49:53;15.80;99.90
20370;DHT22;10344;47.592;9.600;2022-08-11T03:54:57;15.80;99.90
20370;DHT22;10344;47.592;9.600;2022-08-11T04:00:18;15.60;99.90
20370;DHT22;10344;47.592;9.600;2022-08-11T04:06:09;15.60;99.90
20370;DHT22;10344;47.592;9.600;2022-08-11T04:27:24;15.50;99.90
20370;DHT22;10344;47.592;9.600;2022-08-11T04:35:18;15.50;99.90
20370;DHT22;10344;47.592;9.600;2022-08-11T04:51:31;15.30;99.90
20370;DHT22;10344;47.592;9.600;2022-08-11T04:54:22;15.30;99.90
20370;DHT22;10344;47.592;9.600;2022-08-11T04:57:23;15.30;99.90
20370;DHT22;10344;47.592;9.600;2022-08-11T05:00:11;15.40;99.90
20370;DHT22;10344;47.592;9.600;2022-08-11T05:13:11;15.60;99.90
20370;DHT22;10344;47.592;9.600;2022-08-11T05:16:09;15.60;99.90
20370;DHT22;10344;47.592;9.600;2022-08-11T05:18:53;15.70;99.90
20370;DHT22;10344;47.592;9.600;2022-08-11T05:21:39;15.90;99.90
20370;DHT22;10344;47.592;9.600;2022-08-11T05:24:25;16.00;99.90
20370;DHT22;10344;47.592;9.600;2022-08-11T05:27:13;16.10;99.90
20370;DHT22;10344;47.592;9.600;2022-08-11T05:32:45;16.20;99.90
20370;DHT22;10344;47.592;9.600;2022-08-11T05:35:48;16.20;99.90
20370;DHT22;10344;47.592;9.600;2022-08-11T05:38:21;16.30;99.90
20370;DHT22;10344;47.592;9.600;2022-08-11T05:41:06;16.40;99.90
20370;DHT22;10344;47.592;9.600;2022-08-11T05:43:52;16.50;99.90
20370;DHT22;10344;47.592;9.600;2022-08-11T05:46:38;16.50;99.90
20370;DHT22;10344;47.592;9.600;2022-08-11T05:49:24;16.70;99.90
20370;DHT22;10344;47.592;9.600;2022-08-11T05:52:13;16.80;99.90
20370;DHT22;10344;47.592;9.600;2022-08-11T05:55:01;16.90;99.90
20370;DHT22;10344;47.592;9.600;2022-08-11T05:57:46;17.00;99.90
20370;DHT22;10344;47.592;9.600;2022-08-11T06:00:12;17.10;99.90
20370;DHT22;10344;47.592;9.600;2022-08-11T06:02:42;17.20;99.90
20370;DHT22;10344;47.592;9.600;2022-08-11T06:05:08;17.30;99.90
20370;DHT22;10344;47.592;9.600;2022-08-11T06:07:34;17.40;99.90
20370;DHT22;10344;47.592;9.600;2022-08-11T06:10:03;17.50;99.90
20370;DHT22;10344;47.592;9.600;2022-08-11T06:12:29;17.50;99.90
20370;DHT22;10344;47.592;9.600;2022-08-11T06:14:57;17.70;99.90
20370;DHT22;10344;47.592;9.600;2022-08-11T06:17:27;17.70;99.90
20370;DHT22;10344;47.592;9.600;2022-08-11T06:19:59;17.80;99.90
20370;DHT22;10344;47.592;9.600;2022-08-11T06:22:25;17.90;99.90
20370;DHT22;10344;47.592;9.600;2022-08-11T06:24:59;17.90;99.90
20370;DHT22;10344;47.592;9.600;2022-08-11T06:27:25;17.90;99.90
20370;DHT22;10344;47.592;9.600;2022-08-11T06:29:52;18.10;99.90
20370;DHT22;10344;47.592;9.600;2022-08-11T06:32:19;18.20;99.90
20370;DHT22;10344;47.592;9.600;2022-08-11T06:37:29;18.30;99.90
20370;DHT22;10344;47.592;9.600;2022-08-11T06:47:35;18.80;99.90
20370;DHT22;10344;47.592;9.600;2022-08-11T06:50:05;19.00;99.90
20370;DHT22;10344;47.592;9.600;2022-08-11T06:52:50;19.10;99.90
20370;DHT22;10344;47.592;9.600;2022-08-11T06:55:23;19.40;99.90
20370;DHT22;10344;47.592;9.600;2022-08-11T06:58:12;20.50;99.90
20370;DHT22;10344;47.592;9.600;2022-08-11T07:00:57;21.80;99.90
20370;DHT22;10344;47.592;9.600;2022-08-11T07:03:25;23.20;99.90
20370;DHT22;10344;47.592;9.600;2022-08-11T07:05:53;24.10;99.90
20370;DHT22;10344;47.592;9.600;2022-08-11T07:13:53;26.60;99.90
20370;DHT22;10344;47.592;9.600;2022-08-11T07:16:41;27.10;99.90
20370;DHT22;10344;47.592;9.600;2022-08-11T07:19:09;28.20;99.90
20370;DHT22;10344;47.592;9.600;2022-08-11T07:21:55;28.90;99.90
20370;DHT22;10344;47.592;9.600;2022-08-11T07:24:58;29.00;99.90
20370;DHT22;10344;47.592;9.600;2022-08-11T07:27:46;29.00;99.90
20370;DHT22;10344;47.592;9.600;2022-08-11T07:30:34;29.40;98.80
20370;DHT22;10344;47.592;9.600;2022-08-11T07:33:02;28.80;99.20
20370;DHT22;10344;47.592;9.600;2022-08-11T07:35:42;28.60;99.20
20370;DHT22;10344;47.592;9.600;2022-08-11T07:38:23;29.20;98.10
20370;DHT22;10344;47.592;9.600;2022-08-11T07:41:11;28.80;98.90
20370;DHT22;10344;47.592;9.600;2022-08-11T07:43:39;29.00;99.90
20370;DHT22;10344;47.592;9.600;2022-08-11T07:46:06;29.60;98.40
20370;DHT22;10344;47.592;9.600;2022-08-11T07:48:51;30.10;97.50
20370;DHT22;10344;47.592;9.600;2022-08-11T07:51:37;30.30;96.10
20370;DHT22;10344;47.592;9.600;2022-08-11T07:54:22;29.70;96.40
20370;DHT22;10344;47.592;9.600;2022-08-11T07:56:51;29.10;96.70
20370;DHT22;10344;47.592;9.600;2022-08-11T07:59:20;28.90;96.90
20370;DHT22;10344;47.592;9.600;2022-08-11T08:02:08;28.80;97.00
20370;DHT22;10344;47.592;9.600;2022-08-11T08:04:54;28.50;97.20
20370;DHT22;10344;47.592;9.600;2022-08-11T08:07:41;28.00;97.90
20370;DHT22;10344;47.592;9.600;2022-08-11T08:10:26;27.80;98.00
20370;DHT22;10344;47.592;9.600;2022-08-11T08:13:11;27.70;98.30
20370;DHT22;10344;47.592;9.600;2022-08-11T08:15:55;27.60;99.00
20370;DHT22;10344;47.592;9.600;2022-08-11T08:18:40;27.70;98.50
20370;DHT22;10344;47.592;9.600;2022-08-11T08:21:06;28.00;98.10
20370;DHT22;10344;47.592;9.600;2022-08-11T08:23:42;28.20;98.30
20370;DHT22;10344;47.592;9.600;2022-08-11T08:26:10;28.80;99.90
20370;DHT22;10344;47.592;9.600;2022-08-11T08:28:56;28.80;97.80
20370;DHT22;10344;47.592;9.600;2022-08-11T08:31:42;28.50;98.00
20370;DHT22;10344;47.592;9.600;2022-08-11T08:34:08;28.80;97.40
20370;DHT22;10344;47.592;9.600;2022-08-11T08:36:39;28.20;98.10
20370;DHT22;10344;47.592;9.600;2022-08-11T08:39:06;28.60;99.90
20370;DHT22;10344;47.592;9.600;2022-08-11T08:41:35;29.20;99.50
20370;DHT22;10344;47.592;9.600;2022-08-11T08:44:07;29.20;97.10
20370;DHT22;10344;47.592;9.600;2022-08-11T08:46:36;29.00;99.00
20370;DHT22;10344;47.592;9.600;2022-08-11T08:49:06;28.80;97.30
20370;DHT22;10344;47.592;9.600;2022-08-11T08:51:37;28.40;98.00
20370;DHT22;10344;47.592;9.600;2022-08-11T08:56:30;28.80;98.10
20370;DHT22;10344;47.592;9.600;2022-08-11T08:59:00;28.30;97.80
20370;DHT22;10344;47.592;9.600;2022-08-11T09:01:37;27.70;98.80
20370;DHT22;10344;47.592;9.600;2022-08-11T09:04:15;27.80;99.50
20370;DHT22;10344;47.592;9.600;2022-08-11T09:06:42;27.70;98.60
20370;DHT22;10344;47.592;9.600;2022-08-11T09:09:08;27.10;99.70
20370;DHT22;10344;47.592;9.600;2022-08-11T09:11:37;26.70;99.90
20370;DHT22;10344;47.592;9.600;2022-08-11T09:14:24;26.90;99.90
20370;DHT22;10344;47.592;9.600;2022-08-11T09:17:11;27.00;99.90
20370;DHT22;10344;47.592;9.600;2022-08-11T09:19:37;26.90;99.90
20370;DHT22;10344;47.592;9.600;2022-08-11T09:22:03;27.10;99.90
20370;DHT22;10344;47.592;9.600;2022-08-11T09:24:47;27.00;99.90
20370;DHT22;10344;47.592;9.600;2022-08-11T09:27:31;27.40;99.90
20370;DHT22;10344;47.592;9.600;2022-08-11T09:29:57;27.90;99.90
20370;DHT22;10344;47.592;9.600;2022-08-11T09:32:23;27.90;99.90
20370;DHT22;10344;47.592;9.600;2022-08-11T09:34:50;28.60;99.90
20370;DHT22;10344;47.592;9.600;2022-08-11T09:37:17;28.40;99.90
20370;DHT22;10344;47.592;9.600;2022-08-11T09:40:04;28.10;99.90
20370;DHT22;10344;47.592;9.600;2022-08-11T09:42:49;27.40;99.90
20370;DHT22;10344;47.592;9.600;2022-08-11T09:45:34;27.20;99.90
20370;DHT22;10344;47.592;9.600;2022-08-11T09:47:59;27.10;99.90
20370;DHT22;10344;47.592;9.600;2022-08-11T09:50:30;26.80;99.90
20370;DHT22;10344;47.592;9.600;2022-08-11T09:52:57;26.90;99.90
20370;DHT22;10344;47.592;9.600;2022-08-11T09:55:23;26.80;99.90
20370;DHT22;10344;47.592;9.600;2022-08-11T09:57:51;26.80;99.90
20370;DHT22;10344;47.592;9.600;2022-08-11T10:00:36;26.40;99.90
20370;DHT22;10344;47.592;9.600;2022-08-11T10:03:03;26.40;99.90
20370;DHT22;10344;47.592;9.600;2022-08-11T10:05:31;26.50;99.90
20370;DHT22;10344;47.592;9.600;2022-08-11T10:08:16;26.50;99.90
20370;DHT22;10344;47.592;9.600;2022-08-11T10:10:47;26.20;99.90
20370;DHT22;10344;47.592;9.600;2022-08-11T10:13:17;26.10;99.90
20370;DHT22;10344;47.592;9.600;2022-08-11T10:15:44;26.60;99.90
20370;DHT22;10344;47.592;9.600;2022-08-11T10:18:14;27.10;99.90
20370;DHT22;10344;47.592;9.600;2022-08-11T10:21:00;26.90;99.90
20370;DHT22;10344;47.592;9.600;2022-08-11T10:23:31;27.10;99.90
20370;DHT22;10344;47.592;9.600;2022-08-11T10:26:17;27.50;99.90
20370;DHT22;10344;47.592;9.600;2022-08-11T10:29:02;27.20;99.90
20370;DHT22;10344;47.592;9.600;2022-08-11T10:31:48;27.60;99.90
20370;DHT22;10344;47.592;9.600;2022-08-11T10:34:32;28.20;99.90
20370;DHT22;10344;47.592;9.600;2022-08-11T10:36:58;28.40;99.90
20370;DHT22;10344;47.592;9.600;2022-08-11T10:39:27;28.10;99.90
20370;DHT22;10344;47.592;9.600;2022-08-11T10:41:53;27.80;99.90
20370;DHT22;10344;47.592;9.600;2022-08-11T10:44:40;27.20;99.90
20370;DHT22;10344;47.592;9.600;2022-08-11T10:47:06;26.90;99.90
20370;DHT22;10344;47.592;9.600;2022-08-11T10:49:51;26.50;99.90
20370;DHT22;10344;47.592;9.600;2022-08-11T10:52:43;26.80;99.90
20370;DHT22;10344;47.592;9.600;2022-08-11T10:55:29;26.50;99.90
20370;DHT22;10344;47.592;9.600;2022-08-11T10:58:13;26.60;99.90
20370;DHT22;10344;47.592;9.600;2022-08-11T11:00:58;26.60;99.90
20370;DHT22;10344;47.592;9.600;2022-08-11T11:03:25;27.20;99.90
20370;DHT22;10344;47.592;9.600;2022-08-11T11:05:59;27.50;99.90
20370;DHT22;10344;47.592;9.600;2022-08-11T11:08:31;28.20;99.90
20370;DHT22;10344;47.592;9.600;2022-08-11T11:11:17;28.50;99.90
20370;DHT22;10344;47.592;9.600;2022-08-11T11:13:48;28.60;99.90
20370;DHT22;10344;47.592;9.600;2022-08-11T11:16:36;28.30;99.90
20370;DHT22;10344;47.592;9.600;2022-08-11T11:19:23;28.10;99.90
20370;DHT22;10344;47.592;9.600;2022-08-11T11:21:53;28.30;99.90
20370;DHT22;10344;47.592;9.600;2022-08-11T11:24:44;28.70;99.90
20370;DHT22;10344;47.592;9.600;2022-08-11T11:37:57;29.10;99.90
20370;DHT22;10344;47.592;9.600;2022-08-11T11:40:24;28.80;99.90
20370;DHT22;10344;47.592;9.600;2022-08-11T11:42:53;28.40;99.90
20370;DHT22;10344;47.592;9.600;2022-08-11T11:45:22;28.60;99.90
20370;DHT22;10344;47.592;9.600;2022-08-11T11:47:52;29.10;99.90
20370;DHT22;10344;47.592;9.600;2022-08-11T11:50:24;29.90;99.90
20370;DHT22;10344;47.592;9.600;2022-08-11T11:52:51;30.30;99.90
20370;DHT22;10344;47.592;9.600;2022-08-11T11:55:21;30.30;99.90
20370;DHT22;10344;47.592;9.600;2022-08-11T11:57:51;30.60;99.90
20370;DHT22;10344;47.592;9.600;2022-08-11T12:00:37;30.90;99.90
20370;DHT22;10344;47.592;9.600;2022-08-11T12:03:22;31.20;98.80
20370;DHT22;10344;47.592;9.600;2022-08-11T12:05:54;30.50;99.30
20370;DHT22;10344;47.592;9.600;2022-08-11T12:08:20;30.10;98.80
20370;DHT22;10344;47.592;9.600;2022-08-11T12:10:48;29.30;99.90
20370;DHT22;10344;47.592;9.600;2022-08-11T12:13:16;29.50;99.90
20370;DHT22;10344;47.592;9.600;2022-08-11T12:16:01;29.60;99.90
20370;DHT22;10344;47.592;9.600;2022-08-11T12:18:30;29.70;99.90
20370;DHT22;10344;47.592;9.600;2022-08-11T12:20:59;30.00;99.40
20370;DHT22;10344;47.592;9.600;2022-08-11T12:23:28;30.00;99.90
20370;DHT22;10344;47.592;9.600;2022-08-11T12:26:15;30.40;99.90
20370;DHT22;10344;47.592;9.600;2022-08-11T12:29:00;31.00;99.20
20370;DHT22;10344;47.592;9.600;2022-08-11T12:31:31;31.30;99.00
20370;DHT22;10344;47.592;9.600;2022-08-11T12:34:04;31.50;98.10
20370;DHT22;10344;47.592;9.600;2022-08-11T12:36:34;31.40;98.00
20370;DHT22;10344;47.592;9.600;2022-08-11T12:39:05;31.30;97.60
20370;DHT22;10344;47.592;9.600;2022-08-11T12:41:35;30.60;98.90
20370;DHT22;10344;47.592;9.600;2022-08-11T12:44:26;30.10;99.30
20370;DHT22;10344;47.592;9.600;2022-08-11T12:47:16;29.80;99.50
20370;DHT22;10344;47.592;9.600;2022-08-11T12:49:45;29.90;99.90
20370;DHT22;10344;47.592;9.600;2022-08-11T12:52:34;30.00;99.90
20370;DHT22;10344;47.592;9.600;2022-08-11T12:55:11;30.10;99.90
20370;DHT22;10344;47.592;9.600;2022-08-11T12:57:45;30.60;99.90
20370;DHT22;10344;47.592;9.600;2022-08-11T13:00:31;30.90;99.10
20370;DHT22;10344;47.592;9.600;2022-08-11T13:03:19;30.50;99.90
20370;DHT22;10344;47.592;9.600;2022-08-11T13:06:04;30.60;99.90
20370;DHT22;10344;47.592;9.600;2022-08-11T13:08:33;30.30;99.80
20370;DHT22;10344;47.592;9.600;2022-08-11T13:11:03;30.00;99.90
20370;DHT22;10344;47.592;9.600;2022-08-11T13:13:49;29.70;99.90
20370;DHT22;10344;47.592;9.600;2022-08-11T13:16:22;29.70;99.90
20370;DHT22;10344;47.592;9.600;2022-08-11T13:18:48;30.20;99.90
20370;DHT22;10344;47.592;9.600;2022-08-11T13:21:16;30.40;99.50
20370;DHT22;10344;47.592;9.600;2022-08-11T13:23:43;30.60;99.70
20370;DHT22;10344;47.592;9.600;2022-08-11T13:26:10;30.80;99.90
20370;DHT22;10344;47.592;9.600;2022-08-11T13:28:36;30.50;99.90
20370;DHT22;10344;47.592;9.600;2022-08-11T13:31:03;30.70;99.90
20370;DHT22;10344;47.592;9.600;2022-08-11T13:33:48;31.10;99.30
20370;DHT22;10344;47.592;9.600;2022-08-11T13:36:19;31.20;99.30
20370;DHT22;10344;47.592;9.600;2022-08-11T13:38:45;31.40;98.20
20370;DHT22;10344;47.592;9.600;2022-08-11T13:41:12;31.40;98.10
20370;DHT22;10344;47.592;9.600;2022-08-11T13:43:58;31.50;97.60
20370;DHT22;10344;47.592;9.600;2022-08-11T13:46:24;31.50;99.50
20370;DHT22;10344;47.592;9.600;2022-08-11T13:48:54;31.80;99.00
20370;DHT22;10344;47.592;9.600;2022-08-11T13:51:23;32.30;97.80
20370;DHT22;10344;47.592;9.600;2022-08-11T13:54:02;32.40;95.80
20370;DHT22;10344;47.592;9.600;2022-08-11T13:56:29;32.20;96.50
20370;DHT22;10344;47.592;9.600;2022-08-11T13:58:59;32.10;96.10
20370;DHT22;10344;47.592;9.600;2022-08-11T14:01:31;32.00;96.50
20370;DHT22;10344;47.592;9.600;2022-08-11T14:04:31;32.20;96.00
20370;DHT22;10344;47.592;9.600;2022-08-11T14:07:01;32.30;95.50
20370;DHT22;10344;47.592;9.600;2022-08-11T14:09:29;32.20;95.00
20370;DHT22;10344;47.592;9.600;2022-08-11T14:12:00;32.50;95.60
20370;DHT22;10344;47.592;9.600;2022-08-11T14:14:50;32.70;94.00
20370;DHT22;10344;47.592;9.600;2022-08-11T14:17:18;32.80;94.40
20370;DHT22;10344;47.592;9.600;2022-08-11T14:19:48;32.90;94.70
20370;DHT22;10344;47.592;9.600;2022-08-11T14:22:16;33.00;92.80
20370;DHT22;10344;47.592;9.600;2022-08-11T14:24:44;32.80;93.50
20370;DHT22;10344;47.592;9.600;2022-08-11T14:27:14;32.60;94.40
20370;DHT22;10344;47.592;9.600;2022-08-11T14:29:41;32.60;94.20
20370;DHT22;10344;47.592;9.600;2022-08-11T14:32:10;32.50;94.00
20370;DHT22;10344;47.592;9.600;2022-08-11T14:34:41;32.60;93.40
20370;DHT22;10344;47.592;9.600;2022-08-11T14:37:13;32.60;94.50
20370;DHT22;10344;47.592;9.600;2022-08-11T14:39:42;32.70;92.80
20370;DHT22;10344;47.592;9.600;2022-08-11T14:42:09;32.80;93.10
20370;DHT22;10344;47.592;9.600;2022-08-11T14:44:57;32.90;93.90
20370;DHT22;10344;47.592;9.600;2022-08-11T14:47:50;32.70;94.70
20370;DHT22;10344;47.592;9.600;2022-08-11T14:50:27;32.40;93.50
20370;DHT22;10344;47.592;9.600;2022-08-11T14:53:00;32.40;93.70
20370;DHT22;10344;47.592;9.600;2022-08-11T14:55:30;32.50;93.90
20370;DHT22;10344;47.592;9.600;2022-08-11T14:58:17;32.40;93.70
20370;DHT22;10344;47.592;9.600;2022-08-11T15:00:48;32.50;92.50
20370;DHT22;10344;47.592;9.600;2022-08-11T15:03:16;32.40;91.90
20370;DHT22;10344;47.592;9.600;2022-08-11T15:05:55;32.40;92.40
20370;DHT22;10344;47.592;9.600;2022-08-11T15:08:24;32.30;92.20
20370;DHT22;10344;47.592;9.600;2022-08-11T15:11:15;32.30;91.60
20370;DHT22;10344;47.592;9.600;2022-08-11T15:14:01;32.10;91.70
20370;DHT22;10344;47.592;9.600;2022-08-11T15:16:28;32.10;92.20
20370;DHT22;10344;47.592;9.600;2022-08-11T15:19:13;32.30;91.90
20370;DHT22;10344;47.592;9.600;2022-08-11T15:21:40;32.40;91.80
20370;DHT22;10344;47.592;9.600;2022-08-11T15:24:24;32.40;91.40
20370;DHT22;10344;47.592;9.600;2022-08-11T15:26:54;32.50;90.90
20370;DHT22;10344;47.592;9.600;2022-08-11T15:29:40;32.70;90.70
20370;DHT22;10344;47.592;9.600;2022-08-11T15:32:25;32.50;91.40
20370;DHT22;10344;47.592;9.600;2022-08-11T15:35:12;32.30;91.60
20370;DHT22;10344;47.592;9.600;2022-08-11T15:38:00;32.30;90.90
20370;DHT22;10344;47.592;9.600;2022-08-11T15:40:36;32.40;90.30
20370;DHT22;10344;47.592;9.600;2022-08-11T15:43:28;32.50;90.80
20370;DHT22;10344;47.592;9.600;2022-08-11T15:46:19;32.60;91.60
20370;DHT22;10344;47.592;9.600;2022-08-11T15:48:50;32.10;91.70
20370;DHT22;10344;47.592;9.600;2022-08-11T15:51:41;32.10;90.70
20370;DHT22;10344;47.592;9.600;2022-08-11T15:54:08;32.10;90.50
20370;DHT22;10344;47.592;9.600;2022-08-11T15:56:40;31.90;90.00
20370;DHT22;10344;47.592;9.600;2022-08-11T15:59:06;31.70;90.00
20370;DHT22;10344;47.592;9.600;2022-08-11T16:01:51;31.60;90.60
20370;DHT22;10344;47.592;9.600;2022-08-11T16:04:36;31.50;91.80
20370;DHT22;10344;47.592;9.600;2022-08-11T16:07:09;31.30;91.60
20370;DHT22;10344;47.592;9.600;2022-08-11T16:12:21;30.90;91.60
20370;DHT22;10344;47.592;9.600;2022-08-11T16:14:50;30.60;91.70
20370;DHT22;10344;47.592;9.600;2022-08-11T16:17:37;30.50;91.70
20370;DHT22;10344;47.592;9.600;2022-08-11T16:20:04;30.20;92.60
20370;DHT22;10344;47.592;9.600;2022-08-11T16:22:32;30.10;92.70
20370;DHT22;10344;47.592;9.600;2022-08-11T16:25:07;29.90;94.10
20370;DHT22;10344;47.592;9.600;2022-08-11T16:27:35;29.80;93.60
20370;DHT22;10344;47.592;9.600;2022-08-11T16:30:01;29.80;93.40
20370;DHT22;10344;47.592;9.600;2022-08-11T16:32:28;29.60;93.80
20370;DHT22;10344;47.592;9.600;2022-08-11T16:35:03;29.60;94.00
20370;DHT22;10344;47.592;9.600;2022-08-11T16:37:48;29.30;93.90
20370;DHT22;10344;47.592;9.600;2022-08-11T16:40:34;29.10;93.70
20370;DHT22;10344;47.592;9.600;2022-08-11T16:43:02;28.80;93.90
20370;DHT22;10344;47.592;9.600;2022-08-11T16:45:48;28.70;94.50
20370;DHT22;10344;47.592;9.600;2022-08-11T16:48:33;28.60;95.10
20370;DHT22;10344;47.592;9.600;2022-08-11T16:50:58;28.50;94.60
20370;DHT22;10344;47.592;9.600;2022-08-11T16:53:28;28.40;94.80
20370;DHT22;10344;47.592;9.600;2022-08-11T16:55:54;28.20;94.10
20370;DHT22;10344;47.592;9.600;2022-08-11T16:58:20;28.10;95.10
20370;DHT22;10344;47.592;9.600;2022-08-11T17:01:05;28.00;94.90
20370;DHT22;10344;47.592;9.600;2022-08-11T17:03:31;27.90;94.50
20370;DHT22;10344;47.592;9.600;2022-08-11T17:06:16;27.90;95.20
20370;DHT22;10344;47.592;9.600;2022-08-11T17:09:00;27.80;94.90
20370;DHT22;10344;47.592;9.600;2022-08-11T17:11:49;27.70;95.30
20370;DHT22;10344;47.592;9.600;2022-08-11T17:14:39;27.60;96.00
20370;DHT22;10344;47.592;9.600;2022-08-11T17:17:15;27.60;95.40
20370;DHT22;10344;47.592;9.600;2022-08-11T17:19:47;27.60;95.20
20370;DHT22;10344;47.592;9.600;2022-08-11T17:22:14;27.50;95.30
20370;DHT22;10344;47.592;9.600;2022-08-11T17:24:58;27.40;95.10
20370;DHT22;10344;47.592;9.600;2022-08-11T17:27:24;27.40;95.40
20370;DHT22;10344;47.592;9.600;2022-08-11T17:29:51;27.30;95.70
20370;DHT22;10344;47.592;9.600;2022-08-11T17:32:18;27.20;96.10
20370;DHT22;10344;47.592;9.600;2022-08-11T17:35:15;27.10;96.30
20370;DHT22;10344;47.592;9.600;2022-08-11T17:38:02;27.00;96.20
20370;DHT22;10344;47.592;9.600;2022-08-11T17:40:28;26.90;96.80
20370;DHT22;10344;47.592;9.600;2022-08-11T17:42:55;27.00;96.10
20370;DHT22;10344;47.592;9.600;2022-08-11T17:45:39;27.00;96.00
20370;DHT22;10344;47.592;9.600;2022-08-11T17:48:25;26.90;95.90
20370;DHT22;10344;47.592;9.600;2022-08-11T17:50:52;26.80;96.40
20370;DHT22;10344;47.592;9.600;2022-08-11T17:53:18;26.80;96.20
20370;DHT22;10344;47.592;9.600;2022-08-11T17:56:03;26.70;95.70
20370;DHT22;10344;47.592;9.600;2022-08-11T17:58:58;26.70;96.30
20370;DHT22;10344;47.592;9.600;2022-08-11T18:01:43;26.60;96.40
20370;DHT22;10344;47.592;9.600;2022-08-11T18:04:10;26.40;96.80
20370;DHT22;10344;47.592;9.600;2022-08-11T18:06:38;26.40;96.50
20370;DHT22;10344;47.592;9.600;2022-08-11T18:09:14;26.30;96.70
20370;DHT22;10344;47.592;9.600;2022-08-11T18:11:59;26.20;96.60
20370;DHT22;10344;47.592;9.600;2022-08-11T18:14:45;26.10;96.90
20370;DHT22;10344;47.592;9.600;2022-08-11T18:17:30;26.00;97.00
20370;DHT22;10344;47.592;9.600;2022-08-11T18:20:14;25.90;96.80
20370;DHT22;10344;47.592;9.600;2022-08-11T18:22:58;25.80;97.30
20370;DHT22;10344;47.592;9.600;2022-08-11T18:25:44;25.80;97.20
20370;DHT22;10344;47.592;9.600;2022-08-11T18:28:31;25.70;97.20
20370;DHT22;10344;47.592;9.600;2022-08-11T18:31:18;25.60;97.50
20370;DHT22;10344;47.592;9.600;2022-08-11T18:34:04;25.60;97.20
20370;DHT22;10344;47.592;9.600;2022-08-11T18:37:02;25.40;97.40
20370;DHT22;10344;47.592;9.600;2022-08-11T18:39:46;25.40;97.30
20370;DHT22;10344;47.592;9.600;2022-08-11T18:42:31;25.30;97.60
20370;DHT22;10344;47.592;9.600;2022-08-11T18:45:16;25.20;97.70
20370;DHT22;10344;47.592;9.600;2022-08-11T18:48:03;25.10;98.10
20370;DHT22;10344;47.592;9.600;2022-08-11T18:50:49;25.10;98.10
20370;DHT22;10344;47.592;9.600;2022-08-11T18:53:35;25.00;98.20
20370;DHT22;10344;47.592;9.600;2022-08-11T18:56:20;25.00;98.10
20370;DHT22;10344;47.592;9.600;2022-08-11T18:59:05;24.90;98.40
20370;DHT22;10344;47.592;9.600;2022-08-11T19:01:51;24.80;98.50
20370;DHT22;10344;47.592;9.600;2022-08-11T19:04:37;24.70;98.50
20370;DHT22;10344;47.592;9.600;2022-08-11T19:07:22;24.60;98.40
20370;DHT22;10344;47.592;9.600;2022-08-11T19:10:06;24.60;98.20
20370;DHT22;10344;47.592;9.600;2022-08-11T19:12:51;24.50;98.40
20370;DHT22;10344;47.592;9.600;2022-08-11T19:15:36;24.50;98.50
20370;DHT22;10344;47.592;9.600;2022-08-11T19:18:21;24.40;98.40
20370;DHT22;10344;47.592;9.600;2022-08-11T19:21:06;24.40;98.30
20370;DHT22;10344;47.592;9.600;2022-08-11T19:23:51;24.30;98.50
20370;DHT22;10344;47.592;9.600;2022-08-11T19:26:36;24.30;98.20
20370;DHT22;10344;47.592;9.600;2022-08-11T19:29:21;24.20;98.30
20370;DHT22;10344;47.592;9.600;2022-08-11T19:32:06;24.20;97.80
20370;DHT22;10344;47.592;9.600;2022-08-11T19:34:51;24.30;98.10
20370;DHT22;10344;47.592;9.600;2022-08-11T19:37:35;24.20;97.70
20370;DHT22;10344;47.592;9.600;2022-08-11T19:40:21;24.20;97.60